首页
METAR-TAF:

METAR-TAF

机场 :

福州长乐国际机场

福州, 中华人民共和国

纬度: 26-05N, 经度: 119-17E, 海拔: 85米

当前天气观测

该预报发布于30分钟前的11:00 UTC
风速8节,风向南转西南
温度 27°C
湿度 94%
气压 1005 hPa
能见度10公里或以上
少量云层高于700英尺
散云层高于3300英尺

METAR: ZSFZ 191100Z 20004MPS 9999 FEW007 SCT033 27/26 Q1005 NOSIG

时间: 19:30 (11:30 UTC)

预报

该预报发布于8小时和18分钟前的03:12 UTC
预报有效从19日的 06点(UTC)到 20日的 06点(UTC)
风速8节,风向,有时为17节阵风
能見度: 6000
多云层高于1500英尺
短暂存在
从 19日的 06点(UTC)到 19日的 08点(UTC)
多云层高于1500英尺
少量云层高于2500英尺, 积雨云.
雷暴, 小雨,

TAF: ZSFZ 190312Z 1906/2006 18004G09MPS 6000 BKN015 TX31/2006Z TN26/1921Z TEMPO 1906/1908 -TSRA BKN015 FEW025CB

超过4000个机场的气象观测和天气预报(METAR&TAF报告)。

可查询的气象台以黄色和红色小点在地图上表示。

将鼠标移到小点上方,可查看气象台名称。

然后点击查看天气观测和预报。

如需切换地图:点击带黑十字的绿色按钮放大地图;点击带横线的绿色按钮缩小地图;或者点击绿色箭头查看邻近地区的地图。


METAR-TAF: